sensor_id;sensor_type;location;lat;lon;timestamp;P1;durP1;ratioP1;P2;durP2;ratioP2
75993;SDS011;64680;53.800;9.988;2024-01-15T00:02:04;7.43;;;1.50;;
75993;SDS011;64680;53.800;9.988;2024-01-15T00:04:31;7.78;;;1.38;;
75993;SDS011;64680;53.800;9.988;2024-01-15T00:07:01;8.88;;;1.80;;
75993;SDS011;64680;53.800;9.988;2024-01-15T00:09:26;9.35;;;1.70;;
75993;SDS011;64680;53.800;9.988;2024-01-15T00:11:52;4.20;;;1.10;;
75993;SDS011;64680;53.800;9.988;2024-01-15T00:14:18;7.90;;;1.20;;
75993;SDS011;64680;53.800;9.988;2024-01-15T00:16:45;6.05;;;1.55;;
75993;SDS011;64680;53.800;9.988;2024-01-15T00:19:11;7.47;;;1.23;;
75993;SDS011;64680;53.800;9.988;2024-01-15T00:21:36;9.15;;;1.42;;
75993;SDS011;64680;53.800;9.988;2024-01-15T00:24:02;5.35;;;1.40;;
75993;SDS011;64680;53.800;9.988;2024-01-15T00:26:28;6.30;;;1.25;;
75993;SDS011;64680;53.800;9.988;2024-01-15T00:28:53;4.60;;;1.30;;
75993;SDS011;64680;53.800;9.988;2024-01-15T00:31:19;6.57;;;1.70;;
75993;SDS011;64680;53.800;9.988;2024-01-15T00:33:44;8.60;;;1.40;;
75993;SDS011;64680;53.800;9.988;2024-01-15T00:36:10;4.55;;;1.08;;
75993;SDS011;64680;53.800;9.988;2024-01-15T00:38:36;8.50;;;1.70;;
75993;SDS011;64680;53.800;9.988;2024-01-15T00:41:02;7.43;;;1.27;;
75993;SDS011;64680;53.800;9.988;2024-01-15T00:43:28;9.38;;;1.10;;
75993;SDS011;64680;53.800;9.988;2024-01-15T00:45:54;4.40;;;1.13;;
75993;SDS011;64680;53.800;9.988;2024-01-15T00:48:20;7.88;;;0.90;;
75993;SDS011;64680;53.800;9.988;2024-01-15T00:50:45;8.45;;;1.85;;
75993;SDS011;64680;53.800;9.988;2024-01-15T00:53:11;11.23;;;1.27;;
75993;SDS011;64680;53.800;9.988;2024-01-15T00:55:37;9.25;;;2.25;;
75993;SDS011;64680;53.800;9.988;2024-01-15T00:58:03;11.52;;;2.35;;
75993;SDS011;64680;53.800;9.988;2024-01-15T01:00:28;7.72;;;0.77;;
75993;SDS011;64680;53.800;9.988;2024-01-15T01:02:54;6.72;;;1.40;;
75993;SDS011;64680;53.800;9.988;2024-01-15T01:05:20;7.65;;;1.10;;
75993;SDS011;64680;53.800;9.988;2024-01-15T01:07:45;7.10;;;1.25;;
75993;SDS011;64680;53.800;9.988;2024-01-15T01:10:11;6.95;;;1.13;;
75993;SDS011;64680;53.800;9.988;2024-01-15T01:12:36;5.30;;;1.63;;
75993;SDS011;64680;53.800;9.988;2024-01-15T01:15:02;7.80;;;1.50;;
75993;SDS011;64680;53.800;9.988;2024-01-15T01:17:28;9.13;;;1.90;;
75993;SDS011;64680;53.800;9.988;2024-01-15T01:19:56;6.78;;;1.42;;
75993;SDS011;64680;53.800;9.988;2024-01-15T01:22:21;5.30;;;1.38;;
75993;SDS011;64680;53.800;9.988;2024-01-15T01:24:47;6.70;;;0.98;;
75993;SDS011;64680;53.800;9.988;2024-01-15T01:27:13;8.32;;;1.15;;
75993;SDS011;64680;53.800;9.988;2024-01-15T01:29:38;3.83;;;0.90;;
75993;SDS011;64680;53.800;9.988;2024-01-15T01:32:04;8.02;;;0.95;;
75993;SDS011;64680;53.800;9.988;2024-01-15T01:34:29;9.55;;;1.50;;
75993;SDS011;64680;53.800;9.988;2024-01-15T01:36:57;8.10;;;1.65;;
75993;SDS011;64680;53.800;9.988;2024-01-15T01:39:23;7.18;;;1.52;;
75993;SDS011;64680;53.800;9.988;2024-01-15T01:41:49;10.15;;;1.63;;
75993;SDS011;64680;53.800;9.988;2024-01-15T01:44:14;13.32;;;1.77;;
75993;SDS011;64680;53.800;9.988;2024-01-15T01:46:40;6.35;;;1.40;;
75993;SDS011;64680;53.800;9.988;2024-01-15T01:49:06;11.90;;;1.80;;
75993;SDS011;64680;53.800;9.988;2024-01-15T01:51:34;7.70;;;1.55;;
75993;SDS011;64680;53.800;9.988;2024-01-15T01:54:02;8.75;;;0.90;;
75993;SDS011;64680;53.800;9.988;2024-01-15T01:56:29;6.57;;;1.50;;
75993;SDS011;64680;53.800;9.988;2024-01-15T01:58:55;6.68;;;1.17;;
75993;SDS011;64680;53.800;9.988;2024-01-15T02:01:21;11.10;;;1.50;;
75993;SDS011;64680;53.800;9.988;2024-01-15T02:03:47;11.82;;;1.75;;
75993;SDS011;64680;53.800;9.988;2024-01-15T02:06:13;3.55;;;0.95;;
75993;SDS011;64680;53.800;9.988;2024-01-15T02:08:39;10.07;;;1.55;;
75993;SDS011;64680;53.800;9.988;2024-01-15T02:11:04;8.43;;;1.08;;
75993;SDS011;64680;53.800;9.988;2024-01-15T02:13:30;16.35;;;1.67;;
75993;SDS011;64680;53.800;9.988;2024-01-15T02:15:56;12.93;;;1.00;;
75993;SDS011;64680;53.800;9.988;2024-01-15T02:18:21;14.15;;;1.75;;
75993;SDS011;64680;53.800;9.988;2024-01-15T02:20:47;13.55;;;2.10;;
75993;SDS011;64680;53.800;9.988;2024-01-15T02:23:13;9.77;;;1.30;;
75993;SDS011;64680;53.800;9.988;2024-01-15T02:25:40;14.40;;;1.52;;
75993;SDS011;64680;53.800;9.988;2024-01-15T02:28:11;11.65;;;1.35;;
75993;SDS011;64680;53.800;9.988;2024-01-15T02:30:38;11.77;;;2.22;;
75993;SDS011;64680;53.800;9.988;2024-01-15T02:33:05;11.82;;;1.92;;
75993;SDS011;64680;53.800;9.988;2024-01-15T02:35:31;7.20;;;1.25;;
75993;SDS011;64680;53.800;9.988;2024-01-15T02:37:57;6.55;;;1.27;;
75993;SDS011;64680;53.800;9.988;2024-01-15T02:40:23;8.98;;;1.00;;
75993;SDS011;64680;53.800;9.988;2024-01-15T02:42:49;9.50;;;1.42;;
75993;SDS011;64680;53.800;9.988;2024-01-15T02:45:17;7.82;;;1.50;;
75993;SDS011;64680;53.800;9.988;2024-01-15T02:47:42;6.53;;;1.25;;
75993;SDS011;64680;53.800;9.988;2024-01-15T02:50:08;10.32;;;2.13;;
75993;SDS011;64680;53.800;9.988;2024-01-15T02:52:34;9.35;;;1.70;;
75993;SDS011;64680;53.800;9.988;2024-01-15T02:54:59;6.40;;;0.68;;
75993;SDS011;64680;53.800;9.988;2024-01-15T02:57:25;12.48;;;2.20;;
75993;SDS011;64680;53.800;9.988;2024-01-15T02:59:51;11.93;;;1.75;;
75993;SDS011;64680;53.800;9.988;2024-01-15T03:02:16;7.85;;;1.08;;
75993;SDS011;64680;53.800;9.988;2024-01-15T03:04:45;9.88;;;1.23;;
75993;SDS011;64680;53.800;9.988;2024-01-15T03:07:11;12.15;;;1.27;;
75993;SDS011;64680;53.800;9.988;2024-01-15T03:09:36;11.98;;;1.38;;
75993;SDS011;64680;53.800;9.988;2024-01-15T03:12:02;6.30;;;1.05;;
75993;SDS011;64680;53.800;9.988;2024-01-15T03:14:28;6.70;;;1.08;;
75993;SDS011;64680;53.800;9.988;2024-01-15T03:16:53;9.95;;;1.85;;
75993;SDS011;64680;53.800;9.988;2024-01-15T03:19:19;5.10;;;0.75;;
75993;SDS011;64680;53.800;9.988;2024-01-15T03:21:44;6.75;;;1.52;;
75993;SDS011;64680;53.800;9.988;2024-01-15T03:24:10;21.33;;;1.65;;
75993;SDS011;64680;53.800;9.988;2024-01-15T03:26:36;6.05;;;0.82;;
75993;SDS011;64680;53.800;9.988;2024-01-15T03:29:01;8.70;;;1.20;;
75993;SDS011;64680;53.800;9.988;2024-01-15T03:31:27;6.78;;;1.33;;
75993;SDS011;64680;53.800;9.988;2024-01-15T03:33:52;2.70;;;1.02;;
75993;SDS011;64680;53.800;9.988;2024-01-15T03:36:18;7.93;;;1.17;;
75993;SDS011;64680;53.800;9.988;2024-01-15T03:38:44;6.95;;;1.38;;
75993;SDS011;64680;53.800;9.988;2024-01-15T03:41:09;7.57;;;1.30;;
75993;SDS011;64680;53.800;9.988;2024-01-15T03:43:35;10.10;;;1.60;;
75993;SDS011;64680;53.800;9.988;2024-01-15T03:46:01;8.88;;;1.63;;
75993;SDS011;64680;53.800;9.988;2024-01-15T03:48:27;16.38;;;1.02;;
75993;SDS011;64680;53.800;9.988;2024-01-15T03:50:53;6.88;;;1.02;;
75993;SDS011;64680;53.800;9.988;2024-01-15T03:53:18;6.63;;;0.75;;
75993;SDS011;64680;53.800;9.988;2024-01-15T03:55:44;7.90;;;1.08;;
75993;SDS011;64680;53.800;9.988;2024-01-15T03:58:10;16.38;;;1.73;;
75993;SDS011;64680;53.800;9.988;2024-01-15T04:00:36;7.97;;;1.73;;
75993;SDS011;64680;53.800;9.988;2024-01-15T04:03:02;14.93;;;2.72;;
75993;SDS011;64680;53.800;9.988;2024-01-15T04:05:28;12.18;;;1.85;;
75993;SDS011;64680;53.800;9.988;2024-01-15T04:07:53;20.67;;;2.33;;
75993;SDS011;64680;53.800;9.988;2024-01-15T04:10:19;9.50;;;1.58;;
75993;SDS011;64680;53.800;9.988;2024-01-15T04:12:45;6.30;;;1.35;;
75993;SDS011;64680;53.800;9.988;2024-01-15T04:15:13;9.82;;;2.00;;
75993;SDS011;64680;53.800;9.988;2024-01-15T04:17:38;11.25;;;2.20;;
75993;SDS011;64680;53.800;9.988;2024-01-15T04:22:35;13.32;;;2.35;;
75993;SDS011;64680;53.800;9.988;2024-01-15T04:25:01;9.80;;;1.60;;
75993;SDS011;64680;53.800;9.988;2024-01-15T04:27:27;15.20;;;1.75;;
75993;SDS011;64680;53.800;9.988;2024-01-15T04:29:52;16.88;;;2.80;;
75993;SDS011;64680;53.800;9.988;2024-01-15T04:32:18;11.80;;;2.17;;
75993;SDS011;64680;53.800;9.988;2024-01-15T04:34:44;11.00;;;2.17;;
75993;SDS011;64680;53.800;9.988;2024-01-15T04:37:10;11.13;;;2.55;;
75993;SDS011;64680;53.800;9.988;2024-01-15T04:39:35;10.30;;;1.92;;
75993;SDS011;64680;53.800;9.988;2024-01-15T04:42:01;20.75;;;2.45;;
75993;SDS011;64680;53.800;9.988;2024-01-15T04:44:27;10.30;;;1.85;;
75993;SDS011;64680;53.800;9.988;2024-01-15T04:46:56;19.40;;;3.25;;
75993;SDS011;64680;53.800;9.988;2024-01-15T04:49:21;19.73;;;3.55;;
75993;SDS011;64680;53.800;9.988;2024-01-15T04:51:47;15.32;;;2.05;;
75993;SDS011;64680;53.800;9.988;2024-01-15T04:54:13;11.05;;;1.73;;
75993;SDS011;64680;53.800;9.988;2024-01-15T04:56:42;14.05;;;2.10;;
75993;SDS011;64680;53.800;9.988;2024-01-15T04:59:11;17.85;;;2.25;;
75993;SDS011;64680;53.800;9.988;2024-01-15T05:01:41;14.88;;;1.90;;
75993;SDS011;64680;53.800;9.988;2024-01-15T05:04:07;17.00;;;2.20;;
75993;SDS011;64680;53.800;9.988;2024-01-15T05:06:33;16.10;;;2.58;;
75993;SDS011;64680;53.800;9.988;2024-01-15T05:08:58;11.40;;;2.15;;
75993;SDS011;64680;53.800;9.988;2024-01-15T05:11:24;16.75;;;2.95;;
75993;SDS011;64680;53.800;9.988;2024-01-15T05:13:50;11.50;;;1.95;;
75993;SDS011;64680;53.800;9.988;2024-01-15T05:16:15;20.35;;;3.40;;
75993;SDS011;64680;53.800;9.988;2024-01-15T05:18:41;22.67;;;2.58;;
75993;SDS011;64680;53.800;9.988;2024-01-15T05:21:08;17.27;;;2.75;;
75993;SDS011;64680;53.800;9.988;2024-01-15T05:23:34;19.63;;;2.35;;
75993;SDS011;64680;53.800;9.988;2024-01-15T05:25:59;12.57;;;1.77;;
75993;SDS011;64680;53.800;9.988;2024-01-15T05:28:25;20.02;;;1.88;;
75993;SDS011;64680;53.800;9.988;2024-01-15T05:30:51;13.73;;;2.55;;
75993;SDS011;64680;53.800;9.988;2024-01-15T05:33:20;17.23;;;2.13;;
75993;SDS011;64680;53.800;9.988;2024-01-15T05:35:46;18.85;;;2.53;;
75993;SDS011;64680;53.800;9.988;2024-01-15T05:38:11;25.20;;;2.60;;
75993;SDS011;64680;53.800;9.988;2024-01-15T05:40:37;16.63;;;2.38;;
75993;SDS011;64680;53.800;9.988;2024-01-15T05:43:03;20.10;;;2.20;;
75993;SDS011;64680;53.800;9.988;2024-01-15T05:45:30;18.63;;;2.25;;
75993;SDS011;64680;53.800;9.988;2024-01-15T05:47:55;15.70;;;2.85;;
75993;SDS011;64680;53.800;9.988;2024-01-15T05:50:21;17.67;;;2.47;;
75993;SDS011;64680;53.800;9.988;2024-01-15T05:52:47;14.70;;;2.63;;
75993;SDS011;64680;53.800;9.988;2024-01-15T05:55:13;14.13;;;2.50;;
75993;SDS011;64680;53.800;9.988;2024-01-15T05:57:38;16.98;;;2.35;;
75993;SDS011;64680;53.800;9.988;2024-01-15T06:00:04;11.15;;;1.80;;
75993;SDS011;64680;53.800;9.988;2024-01-15T06:02:31;10.05;;;1.85;;
75993;SDS011;64680;53.800;9.988;2024-01-15T06:04:57;11.10;;;1.80;;
75993;SDS011;64680;53.800;9.988;2024-01-15T06:07:22;14.02;;;2.10;;
75993;SDS011;64680;53.800;9.988;2024-01-15T06:09:48;12.00;;;1.77;;
75993;SDS011;64680;53.800;9.988;2024-01-15T06:12:14;20.30;;;3.08;;
75993;SDS011;64680;53.800;9.988;2024-01-15T06:14:40;8.10;;;1.55;;
75993;SDS011;64680;53.800;9.988;2024-01-15T06:17:06;13.43;;;2.63;;
75993;SDS011;64680;53.800;9.988;2024-01-15T06:19:32;11.27;;;2.03;;
75993;SDS011;64680;53.800;9.988;2024-01-15T06:21:57;14.75;;;2.05;;
75993;SDS011;64680;53.800;9.988;2024-01-15T06:24:23;13.68;;;2.13;;
75993;SDS011;64680;53.800;9.988;2024-01-15T06:26:48;20.67;;;1.88;;
75993;SDS011;64680;53.800;9.988;2024-01-15T06:29:14;16.77;;;1.92;;
75993;SDS011;64680;53.800;9.988;2024-01-15T06:31:40;10.15;;;1.48;;
75993;SDS011;64680;53.800;9.988;2024-01-15T06:34:05;8.40;;;1.30;;
75993;SDS011;64680;53.800;9.988;2024-01-15T06:36:31;5.45;;;1.13;;
75993;SDS011;64680;53.800;9.988;2024-01-15T06:38:56;5.68;;;1.10;;
75993;SDS011;64680;53.800;9.988;2024-01-15T06:41:22;7.85;;;1.33;;
75993;SDS011;64680;53.800;9.988;2024-01-15T06:43:48;10.07;;;1.10;;
75993;SDS011;64680;53.800;9.988;2024-01-15T06:46:19;13.95;;;1.60;;
75993;SDS011;64680;53.800;9.988;2024-01-15T06:48:48;8.88;;;1.25;;
75993;SDS011;64680;53.800;9.988;2024-01-15T06:51:14;8.98;;;1.73;;
75993;SDS011;64680;53.800;9.988;2024-01-15T06:53:40;7.70;;;1.15;;
75993;SDS011;64680;53.800;9.988;2024-01-15T06:56:06;7.07;;;1.75;;
75993;SDS011;64680;53.800;9.988;2024-01-15T06:58:31;11.57;;;1.48;;
75993;SDS011;64680;53.800;9.988;2024-01-15T07:00:57;8.35;;;1.40;;
75993;SDS011;64680;53.800;9.988;2024-01-15T07:03:23;10.18;;;1.80;;
75993;SDS011;64680;53.800;9.988;2024-01-15T07:05:48;5.45;;;1.30;;
75993;SDS011;64680;53.800;9.988;2024-01-15T07:08:14;11.52;;;1.30;;
75993;SDS011;64680;53.800;9.988;2024-01-15T07:10:40;4.93;;;1.23;;
75993;SDS011;64680;53.800;9.988;2024-01-15T07:13:05;6.50;;;1.33;;
75993;SDS011;64680;53.800;9.988;2024-01-15T07:15:31;7.95;;;0.80;;
75993;SDS011;64680;53.800;9.988;2024-01-15T07:17:56;8.50;;;1.25;;
75993;SDS011;64680;53.800;9.988;2024-01-15T07:20:22;9.05;;;1.20;;
75993;SDS011;64680;53.800;9.988;2024-01-15T07:22:48;9.95;;;1.02;;
75993;SDS011;64680;53.800;9.988;2024-01-15T07:25:13;5.22;;;1.58;;
75993;SDS011;64680;53.800;9.988;2024-01-15T07:27:40;7.22;;;1.50;;
75993;SDS011;64680;53.800;9.988;2024-01-15T07:30:09;7.85;;;1.10;;
75993;SDS011;64680;53.800;9.988;2024-01-15T07:32:36;7.72;;;1.30;;
75993;SDS011;64680;53.800;9.988;2024-01-15T07:35:01;6.35;;;1.23;;
75993;SDS011;64680;53.800;9.988;2024-01-15T07:37:27;7.40;;;1.25;;
75993;SDS011;64680;53.800;9.988;2024-01-15T07:39:53;4.95;;;0.85;;
75993;SDS011;64680;53.800;9.988;2024-01-15T07:42:19;6.47;;;1.13;;
75993;SDS011;64680;53.800;9.988;2024-01-15T07:44:44;7.65;;;1.30;;
75993;SDS011;64680;53.800;9.988;2024-01-15T07:47:10;9.32;;;1.35;;
75993;SDS011;64680;53.800;9.988;2024-01-15T07:49:35;4.97;;;0.88;;
75993;SDS011;64680;53.800;9.988;2024-01-15T07:52:01;6.57;;;1.35;;
75993;SDS011;64680;53.800;9.988;2024-01-15T07:54:27;6.78;;;1.13;;
75993;SDS011;64680;53.800;9.988;2024-01-15T07:56:56;9.55;;;1.30;;
75993;SDS011;64680;53.800;9.988;2024-01-15T07:59:24;4.88;;;1.20;;
75993;SDS011;64680;53.800;9.988;2024-01-15T08:01:50;3.80;;;0.95;;
75993;SDS011;64680;53.800;9.988;2024-01-15T08:04:16;6.82;;;0.90;;
75993;SDS011;64680;53.800;9.988;2024-01-15T08:06:42;9.20;;;1.40;;
75993;SDS011;64680;53.800;9.988;2024-01-15T08:09:07;4.00;;;0.95;;
75993;SDS011;64680;53.800;9.988;2024-01-15T08:11:33;7.68;;;1.10;;
75993;SDS011;64680;53.800;9.988;2024-01-15T08:13:59;7.13;;;1.15;;
75993;SDS011;64680;53.800;9.988;2024-01-15T08:16:25;9.15;;;1.02;;
75993;SDS011;64680;53.800;9.988;2024-01-15T08:18:52;13.70;;;1.90;;
75993;SDS011;64680;53.800;9.988;2024-01-15T08:21:18;13.45;;;1.25;;
75993;SDS011;64680;53.800;9.988;2024-01-15T08:23:44;8.48;;;1.17;;
75993;SDS011;64680;53.800;9.988;2024-01-15T08:26:10;10.68;;;1.85;;
75993;SDS011;64680;53.800;9.988;2024-01-15T08:28:36;8.60;;;1.10;;
75993;SDS011;64680;53.800;9.988;2024-01-15T08:31:01;4.32;;;1.92;;
75993;SDS011;64680;53.800;9.988;2024-01-15T08:33:28;6.43;;;1.20;;
75993;SDS011;64680;53.800;9.988;2024-01-15T08:35:54;7.50;;;1.25;;
75993;SDS011;64680;53.800;9.988;2024-01-15T08:38:20;10.45;;;1.00;;
75993;SDS011;64680;53.800;9.988;2024-01-15T08:40:45;7.43;;;1.92;;
75993;SDS011;64680;53.800;9.988;2024-01-15T08:43:12;5.28;;;1.08;;
75993;SDS011;64680;53.800;9.988;2024-01-15T08:45:38;5.75;;;1.05;;
75993;SDS011;64680;53.800;9.988;2024-01-15T08:48:04;7.60;;;1.25;;
75993;SDS011;64680;53.800;9.988;2024-01-15T08:50:30;12.50;;;2.05;;
75993;SDS011;64680;53.800;9.988;2024-01-15T08:52:57;3.97;;;0.90;;
75993;SDS011;64680;53.800;9.988;2024-01-15T08:55:23;5.82;;;1.73;;
75993;SDS011;64680;53.800;9.988;2024-01-15T08:57:49;6.50;;;0.45;;
75993;SDS011;64680;53.800;9.988;2024-01-15T09:00:15;9.38;;;1.23;;
75993;SDS011;64680;53.800;9.988;2024-01-15T09:02:42;6.20;;;1.27;;
75993;SDS011;64680;53.800;9.988;2024-01-15T09:05:08;6.07;;;1.30;;
75993;SDS011;64680;53.800;9.988;2024-01-15T09:07:34;7.53;;;1.15;;
75993;SDS011;64680;53.800;9.988;2024-01-15T09:10:00;5.95;;;1.20;;
75993;SDS011;64680;53.800;9.988;2024-01-15T09:12:26;8.98;;;1.20;;
75993;SDS011;64680;53.800;9.988;2024-01-15T09:14:52;10.57;;;1.85;;
75993;SDS011;64680;53.800;9.988;2024-01-15T09:17:18;9.68;;;2.05;;
75993;SDS011;64680;53.800;9.988;2024-01-15T09:19:44;10.85;;;1.48;;
75993;SDS011;64680;53.800;9.988;2024-01-15T09:22:12;7.65;;;1.35;;
75993;SDS011;64680;53.800;9.988;2024-01-15T09:24:39;10.80;;;1.52;;
75993;SDS011;64680;53.800;9.988;2024-01-15T09:27:06;8.10;;;1.00;;
75993;SDS011;64680;53.800;9.988;2024-01-15T09:29:31;8.25;;;1.70;;
75993;SDS011;64680;53.800;9.988;2024-01-15T09:31:57;8.45;;;1.30;;
75993;SDS011;64680;53.800;9.988;2024-01-15T09:34:23;5.70;;;1.05;;
75993;SDS011;64680;53.800;9.988;2024-01-15T09:36:49;7.55;;;1.10;;
75993;SDS011;64680;53.800;9.988;2024-01-15T09:39:14;5.22;;;1.30;;
75993;SDS011;64680;53.800;9.988;2024-01-15T09:41:40;9.27;;;0.60;;
75993;SDS011;64680;53.800;9.988;2024-01-15T09:44:06;4.00;;;0.90;;
75993;SDS011;64680;53.800;9.988;2024-01-15T09:46:33;7.63;;;0.88;;
75993;SDS011;64680;53.800;9.988;2024-01-15T09:49:00;11.13;;;1.38;;
75993;SDS011;64680;53.800;9.988;2024-01-15T09:51:26;10.65;;;1.77;;
75993;SDS011;64680;53.800;9.988;2024-01-15T09:53:55;7.50;;;1.98;;
75993;SDS011;64680;53.800;9.988;2024-01-15T09:56:23;7.85;;;1.90;;
75993;SDS011;64680;53.800;9.988;2024-01-15T09:58:49;8.15;;;1.10;;
75993;SDS011;64680;53.800;9.988;2024-01-15T10:01:18;11.55;;;1.73;;
75993;SDS011;64680;53.800;9.988;2024-01-15T10:03:45;10.63;;;1.45;;
75993;SDS011;64680;53.800;9.988;2024-01-15T10:06:11;9.68;;;2.55;;
75993;SDS011;64680;53.800;9.988;2024-01-15T10:08:42;8.18;;;1.33;;
75993;SDS011;64680;53.800;9.988;2024-01-15T10:11:12;8.95;;;1.63;;
75993;SDS011;64680;53.800;9.988;2024-01-15T10:13:38;9.75;;;1.83;;
75993;SDS011;64680;53.800;9.988;2024-01-15T10:16:04;10.30;;;1.90;;
75993;SDS011;64680;53.800;9.988;2024-01-15T10:18:30;7.13;;;2.05;;
75993;SDS011;64680;53.800;9.988;2024-01-15T10:20:56;9.82;;;1.95;;
75993;SDS011;64680;53.800;9.988;2024-01-15T10:23:23;8.57;;;1.33;;
75993;SDS011;64680;53.800;9.988;2024-01-15T10:25:49;6.40;;;1.77;;
75993;SDS011;64680;53.800;9.988;2024-01-15T10:28:16;9.45;;;1.30;;
75993;SDS011;64680;53.800;9.988;2024-01-15T10:30:44;13.13;;;1.25;;
75993;SDS011;64680;53.800;9.988;2024-01-15T10:33:10;4.38;;;0.90;;
75993;SDS011;64680;53.800;9.988;2024-01-15T10:35:37;8.80;;;1.73;;
75993;SDS011;64680;53.800;9.988;2024-01-15T10:38:03;3.80;;;1.27;;
75993;SDS011;64680;53.800;9.988;2024-01-15T10:40:30;13.50;;;2.08;;
75993;SDS011;64680;53.800;9.988;2024-01-15T10:42:56;5.53;;;0.77;;
75993;SDS011;64680;53.800;9.988;2024-01-15T10:45:22;2.30;;;0.82;;
75993;SDS011;64680;53.800;9.988;2024-01-15T10:47:48;1.83;;;0.73;;
75993;SDS011;64680;53.800;9.988;2024-01-15T10:50:14;1.83;;;0.80;;
75993;SDS011;64680;53.800;9.988;2024-01-15T10:52:40;5.25;;;1.20;;
75993;SDS011;64680;53.800;9.988;2024-01-15T10:55:10;4.22;;;0.70;;
75993;SDS011;64680;53.800;9.988;2024-01-15T10:57:38;5.45;;;0.80;;
75993;SDS011;64680;53.800;9.988;2024-01-15T11:00:05;4.22;;;0.82;;
75993;SDS011;64680;53.800;9.988;2024-01-15T11:02:32;5.32;;;0.93;;
75993;SDS011;64680;53.800;9.988;2024-01-15T11:04:59;3.55;;;1.05;;
75993;SDS011;64680;53.800;9.988;2024-01-15T11:07:25;4.18;;;0.95;;
75993;SDS011;64680;53.800;9.988;2024-01-15T11:09:51;3.55;;;0.63;;
75993;SDS011;64680;53.800;9.988;2024-01-15T11:12:17;1.73;;;0.77;;
75993;SDS011;64680;53.800;9.988;2024-01-15T11:17:14;2.90;;;0.90;;
75993;SDS011;64680;53.800;9.988;2024-01-15T11:19:47;6.45;;;1.00;;
75993;SDS011;64680;53.800;9.988;2024-01-15T11:25:14;1.42;;;0.63;;
75993;SDS011;64680;53.800;9.988;2024-01-15T11:27:40;3.60;;;0.40;;
75993;SDS011;64680;53.800;9.988;2024-01-15T11:30:17;1.73;;;0.77;;
75993;SDS011;64680;53.800;9.988;2024-01-15T11:32:45;3.75;;;1.10;;
75993;SDS011;64680;53.800;9.988;2024-01-15T11:35:12;6.47;;;1.50;;
75993;SDS011;64680;53.800;9.988;2024-01-15T11:40:21;1.90;;;0.98;;
75993;SDS011;64680;53.800;9.988;2024-01-15T11:43:04;0.88;;;0.57;;
75993;SDS011;64680;53.800;9.988;2024-01-15T11:45:31;2.70;;;0.80;;
75993;SDS011;64680;53.800;9.988;2024-01-15T11:48:14;3.50;;;1.20;;
75993;SDS011;64680;53.800;9.988;2024-01-15T11:50:42;3.13;;;0.77;;
75993;SDS011;64680;53.800;9.988;2024-01-15T11:53:21;2.95;;;0.70;;
75993;SDS011;64680;53.800;9.988;2024-01-15T11:56:06;3.20;;;0.63;;
75993;SDS011;64680;53.800;9.988;2024-01-15T11:58:41;1.95;;;0.82;;
75993;SDS011;64680;53.800;9.988;2024-01-15T12:01:08;3.67;;;1.08;;
75993;SDS011;64680;53.800;9.988;2024-01-15T12:03:34;3.22;;;1.20;;
75993;SDS011;64680;53.800;9.988;2024-01-15T12:05:59;3.53;;;1.13;;
75993;SDS011;64680;53.800;9.988;2024-01-15T12:08:25;2.88;;;1.05;;
75993;SDS011;64680;53.800;9.988;2024-01-15T12:10:52;3.30;;;1.27;;
75993;SDS011;64680;53.800;9.988;2024-01-15T12:13:18;1.88;;;1.10;;
75993;SDS011;64680;53.800;9.988;2024-01-15T12:15:46;0.93;;;0.70;;
75993;SDS011;64680;53.800;9.988;2024-01-15T12:18:15;4.20;;;1.33;;
75993;SDS011;64680;53.800;9.988;2024-01-15T12:20:42;3.97;;;0.90;;
75993;SDS011;64680;53.800;9.988;2024-01-15T12:23:09;1.83;;;0.93;;
75993;SDS011;64680;53.800;9.988;2024-01-15T12:25:35;1.77;;;0.80;;
75993;SDS011;64680;53.800;9.988;2024-01-15T12:28:01;2.78;;;1.02;;
75993;SDS011;64680;53.800;9.988;2024-01-15T12:30:27;3.22;;;1.25;;
75993;SDS011;64680;53.800;9.988;2024-01-15T12:32:53;3.40;;;0.90;;
75993;SDS011;64680;53.800;9.988;2024-01-15T12:35:19;2.97;;;0.82;;
75993;SDS011;64680;53.800;9.988;2024-01-15T12:37:45;1.67;;;0.90;;
75993;SDS011;64680;53.800;9.988;2024-01-15T12:40:11;4.60;;;1.05;;
75993;SDS011;64680;53.800;9.988;2024-01-15T12:42:37;2.47;;;0.80;;
75993;SDS011;64680;53.800;9.988;2024-01-15T12:45:06;2.95;;;0.80;;
75993;SDS011;64680;53.800;9.988;2024-01-15T12:47:33;1.85;;;0.70;;
75993;SDS011;64680;53.800;9.988;2024-01-15T12:49:59;2.28;;;0.50;;
75993;SDS011;64680;53.800;9.988;2024-01-15T12:52:26;2.08;;;0.63;;
75993;SDS011;64680;53.800;9.988;2024-01-15T12:54:52;1.63;;;0.93;;
75993;SDS011;64680;53.800;9.988;2024-01-15T12:57:18;1.35;;;0.80;;
75993;SDS011;64680;53.800;9.988;2024-01-15T12:59:44;1.50;;;1.05;;
75993;SDS011;64680;53.800;9.988;2024-01-15T13:02:13;2.15;;;0.90;;
75993;SDS011;64680;53.800;9.988;2024-01-15T13:04:39;2.13;;;0.80;;
75993;SDS011;64680;53.800;9.988;2024-01-15T13:07:05;2.90;;;0.90;;
75993;SDS011;64680;53.800;9.988;2024-01-15T13:09:32;1.98;;;0.63;;
75993;SDS011;64680;53.800;9.988;2024-01-15T13:11:57;2.85;;;0.75;;
75993;SDS011;64680;53.800;9.988;2024-01-15T13:14:24;6.60;;;0.98;;
75993;SDS011;64680;53.800;9.988;2024-01-15T13:16:49;2.72;;;1.02;;
75993;SDS011;64680;53.800;9.988;2024-01-15T13:19:15;2.95;;;0.68;;
75993;SDS011;64680;53.800;9.988;2024-01-15T13:21:40;4.45;;;0.80;;
75993;SDS011;64680;53.800;9.988;2024-01-15T13:24:07;2.22;;;0.82;;
75993;SDS011;64680;53.800;9.988;2024-01-15T13:26:33;2.05;;;0.75;;
75993;SDS011;64680;53.800;9.988;2024-01-15T13:29:02;2.30;;;0.95;;
75993;SDS011;64680;53.800;9.988;2024-01-15T13:31:34;2.90;;;1.15;;
75993;SDS011;64680;53.800;9.988;2024-01-15T13:36:28;2.45;;;0.88;;
75993;SDS011;64680;53.800;9.988;2024-01-15T13:38:54;3.67;;;1.15;;
75993;SDS011;64680;53.800;9.988;2024-01-15T13:41:20;5.95;;;1.38;;
75993;SDS011;64680;53.800;9.988;2024-01-15T13:43:53;3.92;;;0.73;;
75993;SDS011;64680;53.800;9.988;2024-01-15T13:46:23;5.32;;;0.93;;
75993;SDS011;64680;53.800;9.988;2024-01-15T13:48:49;9.65;;;1.02;;
75993;SDS011;64680;53.800;9.988;2024-01-15T13:51:15;1.48;;;1.02;;
75993;SDS011;64680;53.800;9.988;2024-01-15T13:53:41;1.73;;;0.73;;
75993;SDS011;64680;53.800;9.988;2024-01-15T13:56:06;1.15;;;0.63;;
75993;SDS011;64680;53.800;9.988;2024-01-15T13:58:33;1.88;;;0.88;;
75993;SDS011;64680;53.800;9.988;2024-01-15T14:00:59;1.17;;;0.90;;
75993;SDS011;64680;53.800;9.988;2024-01-15T14:03:25;5.53;;;0.90;;
75993;SDS011;64680;53.800;9.988;2024-01-15T14:05:51;2.42;;;0.88;;
75993;SDS011;64680;53.800;9.988;2024-01-15T14:08:17;2.08;;;0.73;;
75993;SDS011;64680;53.800;9.988;2024-01-15T14:10:42;1.75;;;0.85;;
75993;SDS011;64680;53.800;9.988;2024-01-15T14:13:08;2.10;;;0.85;;
75993;SDS011;64680;53.800;9.988;2024-01-15T14:15:34;0.88;;;0.75;;
75993;SDS011;64680;53.800;9.988;2024-01-15T14:18:00;2.70;;;0.65;;
75993;SDS011;64680;53.800;9.988;2024-01-15T14:20:26;5.45;;;0.70;;
75993;SDS011;64680;53.800;9.988;2024-01-15T14:22:52;3.90;;;0.90;;
75993;SDS011;64680;53.800;9.988;2024-01-15T14:25:19;2.75;;;0.70;;
75993;SDS011;64680;53.800;9.988;2024-01-15T14:27:45;1.63;;;0.45;;
75993;SDS011;64680;53.800;9.988;2024-01-15T14:30:10;3.63;;;1.02;;
75993;SDS011;64680;53.800;9.988;2024-01-15T14:32:38;2.60;;;1.13;;
75993;SDS011;64680;53.800;9.988;2024-01-15T14:35:04;3.15;;;1.00;;
75993;SDS011;64680;53.800;9.988;2024-01-15T14:37:35;2.65;;;0.70;;
75993;SDS011;64680;53.800;9.988;2024-01-15T14:42:33;2.85;;;1.23;;
75993;SDS011;64680;53.800;9.988;2024-01-15T14:44:59;11.55;;;4.07;;
75993;SDS011;64680;53.800;9.988;2024-01-15T14:47:26;28.45;;;8.80;;
75993;SDS011;64680;53.800;9.988;2024-01-15T14:49:52;11.73;;;4.68;;
75993;SDS011;64680;53.800;9.988;2024-01-15T14:52:18;6.30;;;3.22;;
75993;SDS011;64680;53.800;9.988;2024-01-15T14:54:45;8.55;;;2.20;;